sensor_id;sensor_type;location;lat;lon;timestamp;P1;durP1;ratioP1;P2;durP2;ratioP2
74788;SDS011;63313;48.258;12.518;2022-11-13T00:01:16;99.66;;;11.309999999999999;;
74788;SDS011;63313;48.258;12.518;2022-11-13T00:06:43;65.59;;;8.97;;
74788;SDS011;63313;48.258;12.518;2022-11-13T00:12:10;87.67999999999998;;;12.080000000000002;;
74788;SDS011;63313;48.258;12.518;2022-11-13T00:17:37;80.34;;;8.33;;
74788;SDS011;63313;48.258;12.518;2022-11-13T00:23:04;38.459999999999994;;;8.64;;
74788;SDS011;63313;48.258;12.518;2022-11-13T00:28:31;118.16000000000001;;;9.620000000000001;;
74788;SDS011;63313;48.258;12.518;2022-11-13T00:33:58;77.08;;;9.260000000000002;;
74788;SDS011;63313;48.258;12.518;2022-11-13T00:39:26;214.68;;;12.01;;
74788;SDS011;63313;48.258;12.518;2022-11-13T00:44:53;124.04;;;7.789999999999999;;
74788;SDS011;63313;48.258;12.518;2022-11-13T00:50:20;92.05000000000001;;;8.389999999999999;;
74788;SDS011;63313;48.258;12.518;2022-11-13T00:55:47;74.36;;;9.1;;
74788;SDS011;63313;48.258;12.518;2022-11-13T01:01:14;27.78;;;7.8100000000000005;;
74788;SDS011;63313;48.258;12.518;2022-11-13T01:06:43;95.88;;;9.06;;
74788;SDS011;63313;48.258;12.518;2022-11-13T01:12:10;58.96999999999999;;;9.490000000000002;;
74788;SDS011;63313;48.258;12.518;2022-11-13T01:17:37;47.21;;;8.52;;
74788;SDS011;63313;48.258;12.518;2022-11-13T01:23:04;101.14000000000001;;;10.520000000000001;;
74788;SDS011;63313;48.258;12.518;2022-11-13T01:28:31;42.43;;;7.539999999999999;;
74788;SDS011;63313;48.258;12.518;2022-11-13T01:33:58;43.870000000000005;;;7.669999999999999;;
74788;SDS011;63313;48.258;12.518;2022-11-13T01:39:25;85.10000000000001;;;10.3;;
74788;SDS011;63313;48.258;12.518;2022-11-13T01:44:53;33.2;;;8.26;;
74788;SDS011;63313;48.258;12.518;2022-11-13T01:50:21;145.41;;;10.17;;
74788;SDS011;63313;48.258;12.518;2022-11-13T01:55:48;47.71;;;7.05;;
74788;SDS011;63313;48.258;12.518;2022-11-13T02:01:16;77.89;;;7.640000000000001;;
74788;SDS011;63313;48.258;12.518;2022-11-13T02:06:44;86.12;;;7.5;;
74788;SDS011;63313;48.258;12.518;2022-11-13T02:12:13;29.619999999999997;;;7.4799999999999995;;
74788;SDS011;63313;48.258;12.518;2022-11-13T02:17:41;83.36999999999999;;;8.030000000000001;;
74788;SDS011;63313;48.258;12.518;2022-11-13T02:23:11;109.39000000000001;;;8.42;;
74788;SDS011;63313;48.258;12.518;2022-11-13T02:28:40;21.400000000000002;;;5.9399999999999995;;
74788;SDS011;63313;48.258;12.518;2022-11-13T02:34:07;104.2;;;8.29;;
74788;SDS011;63313;48.258;12.518;2022-11-13T02:39:34;22.52;;;6.21;;
74788;SDS011;63313;48.258;12.518;2022-11-13T02:45:01;32.019999999999996;;;5.9399999999999995;;
74788;SDS011;63313;48.258;12.518;2022-11-13T02:50:28;41.37;;;6.220000000000001;;
74788;SDS011;63313;48.258;12.518;2022-11-13T02:55:55;60.830000000000005;;;6.5;;
74788;SDS011;63313;48.258;12.518;2022-11-13T03:01:22;26.22;;;5.9399999999999995;;
74788;SDS011;63313;48.258;12.518;2022-11-13T03:06:49;43.91;;;7.01;;
74788;SDS011;63313;48.258;12.518;2022-11-13T03:12:16;62.239999999999995;;;6.5600000000000005;;
74788;SDS011;63313;48.258;12.518;2022-11-13T03:17:44;29.32;;;5.28;;
74788;SDS011;63313;48.258;12.518;2022-11-13T03:23:11;38.31;;;6.4300000000000015;;
74788;SDS011;63313;48.258;12.518;2022-11-13T03:28:38;28.82;;;5.819999999999999;;
74788;SDS011;63313;48.258;12.518;2022-11-13T03:34:05;41.92999999999999;;;5.66;;
74788;SDS011;63313;48.258;12.518;2022-11-13T03:39:32;57.19;;;5.25;;
74788;SDS011;63313;48.258;12.518;2022-11-13T03:44:59;109.31000000000002;;;7.17;;
74788;SDS011;63313;48.258;12.518;2022-11-13T03:50:26;100.83;;;7.859999999999999;;
74788;SDS011;63313;48.258;12.518;2022-11-13T03:55:53;18.71;;;5.340000000000001;;
74788;SDS011;63313;48.258;12.518;2022-11-13T04:01:21;30.1;;;5.46;;
74788;SDS011;63313;48.258;12.518;2022-11-13T04:06:48;32.28000000000001;;;5.64;;
74788;SDS011;63313;48.258;12.518;2022-11-13T04:12:15;15.429999999999998;;;5.380000000000001;;
74788;SDS011;63313;48.258;12.518;2022-11-13T04:17:42;13.459999999999999;;;4.75;;
74788;SDS011;63313;48.258;12.518;2022-11-13T04:23:09;20.09;;;4.87;;
74788;SDS011;63313;48.258;12.518;2022-11-13T04:28:36;16.930000000000003;;;4.47;;
74788;SDS011;63313;48.258;12.518;2022-11-13T04:34:03;8.84;;;4.430000000000001;;
74788;SDS011;63313;48.258;12.518;2022-11-13T04:39:30;4.550000000000001;;;3.8200000000000003;;
74788;SDS011;63313;48.258;12.518;2022-11-13T04:44:57;7.909999999999999;;;4.1899999999999995;;
74788;SDS011;63313;48.258;12.518;2022-11-13T04:50:25;15.060000000000002;;;4.64;;
74788;SDS011;63313;48.258;12.518;2022-11-13T04:55:52;12.299999999999999;;;4.790000000000001;;
74788;SDS011;63313;48.258;12.518;2022-11-13T05:01:19;37.25;;;6.25;;
74788;SDS011;63313;48.258;12.518;2022-11-13T05:06:46;20.15;;;5.970000000000001;;
74788;SDS011;63313;48.258;12.518;2022-11-13T05:12:13;48.13;;;7.040000000000001;;
74788;SDS011;63313;48.258;12.518;2022-11-13T05:17:40;17.440000000000005;;;6.34;;
74788;SDS011;63313;48.258;12.518;2022-11-13T05:23:07;43.94;;;6.99;;
74788;SDS011;63313;48.258;12.518;2022-11-13T05:28:35;41.99;;;6.4;;
74788;SDS011;63313;48.258;12.518;2022-11-13T05:34:02;45.41;;;6.82;;
74788;SDS011;63313;48.258;12.518;2022-11-13T05:39:29;32.730000000000004;;;5.44;;
74788;SDS011;63313;48.258;12.518;2022-11-13T05:44:56;65.42;;;7.5699999999999985;;
74788;SDS011;63313;48.258;12.518;2022-11-13T05:50:24;67.85;;;6.27;;
74788;SDS011;63313;48.258;12.518;2022-11-13T05:55:51;19.950000000000003;;;5.35;;
74788;SDS011;63313;48.258;12.518;2022-11-13T06:01:19;5.92;;;4.2299999999999995;;
74788;SDS011;63313;48.258;12.518;2022-11-13T06:06:46;5.63;;;4.14;;
74788;SDS011;63313;48.258;12.518;2022-11-13T06:12:13;4.15;;;3.72;;
74788;SDS011;63313;48.258;12.518;2022-11-13T06:17:43;5.09;;;4.24;;
74788;SDS011;63313;48.258;12.518;2022-11-13T06:23:11;4.83;;;3.54;;
74788;SDS011;63313;48.258;12.518;2022-11-13T06:28:38;4.470000000000001;;;3.72;;
74788;SDS011;63313;48.258;12.518;2022-11-13T06:34:05;4.909999999999999;;;4.130000000000001;;
74788;SDS011;63313;48.258;12.518;2022-11-13T06:39:32;5.2700000000000005;;;4.07;;
74788;SDS011;63313;48.258;12.518;2022-11-13T06:44:59;5.1;;;4.37;;
74788;SDS011;63313;48.258;12.518;2022-11-13T06:50:26;6.95;;;5.0;;
74788;SDS011;63313;48.258;12.518;2022-11-13T06:55:54;4.540000000000001;;;4.07;;
74788;SDS011;63313;48.258;12.518;2022-11-13T07:01:21;6.27;;;4.58;;
74788;SDS011;63313;48.258;12.518;2022-11-13T07:06:48;8.11;;;4.859999999999999;;
74788;SDS011;63313;48.258;12.518;2022-11-13T07:12:16;6.65;;;5.13;;
74788;SDS011;63313;48.258;12.518;2022-11-13T07:17:43;7.279999999999999;;;5.57;;
74788;SDS011;63313;48.258;12.518;2022-11-13T07:23:10;7.460000000000001;;;5.5;;
74788;SDS011;63313;48.258;12.518;2022-11-13T07:28:37;7.359999999999999;;;5.380000000000001;;
74788;SDS011;63313;48.258;12.518;2022-11-13T07:34:04;128.9;;;9.870000000000001;;
74788;SDS011;63313;48.258;12.518;2022-11-13T07:39:31;51.39;;;7.12;;
74788;SDS011;63313;48.258;12.518;2022-11-13T07:44:58;18.23;;;5.13;;
74788;SDS011;63313;48.258;12.518;2022-11-13T07:50:26;13.029999999999998;;;4.61;;
74788;SDS011;63313;48.258;12.518;2022-11-13T07:55:53;10.540000000000001;;;5.75;;
74788;SDS011;63313;48.258;12.518;2022-11-13T08:01:20;7.959999999999999;;;5.779999999999999;;
74788;SDS011;63313;48.258;12.518;2022-11-13T08:06:47;11.33;;;6.42;;
74788;SDS011;63313;48.258;12.518;2022-11-13T08:12:14;13.36;;;6.780000000000001;;
74788;SDS011;63313;48.258;12.518;2022-11-13T08:17:41;11.459999999999999;;;6.4799999999999995;;
74788;SDS011;63313;48.258;12.518;2022-11-13T08:23:08;7.82;;;6.01;;
74788;SDS011;63313;48.258;12.518;2022-11-13T08:28:36;10.260000000000002;;;7.42;;
74788;SDS011;63313;48.258;12.518;2022-11-13T08:34:03;8.37;;;6.3;;
74788;SDS011;63313;48.258;12.518;2022-11-13T08:39:30;9.229999999999999;;;6.16;;
74788;SDS011;63313;48.258;12.518;2022-11-13T08:44:57;14.38;;;7.74;;
74788;SDS011;63313;48.258;12.518;2022-11-13T08:50:24;7.19;;;5.299999999999999;;
74788;SDS011;63313;48.258;12.518;2022-11-13T08:55:51;11.459999999999999;;;5.6000000000000005;;
74788;SDS011;63313;48.258;12.518;2022-11-13T09:01:18;10.35;;;6.8;;
74788;SDS011;63313;48.258;12.518;2022-11-13T09:06:45;9.99;;;6.7299999999999995;;
74788;SDS011;63313;48.258;12.518;2022-11-13T09:12:12;9.69;;;6.040000000000001;;
74788;SDS011;63313;48.258;12.518;2022-11-13T09:17:39;8.97;;;6.2299999999999995;;
74788;SDS011;63313;48.258;12.518;2022-11-13T09:23:07;15.190000000000001;;;10.350000000000001;;
74788;SDS011;63313;48.258;12.518;2022-11-13T09:28:34;12.69;;;8.42;;
74788;SDS011;63313;48.258;12.518;2022-11-13T09:34:01;11.93;;;8.470000000000002;;
74788;SDS011;63313;48.258;12.518;2022-11-13T09:39:28;10.66;;;7.580000000000001;;
74788;SDS011;63313;48.258;12.518;2022-11-13T09:44:57;10.309999999999999;;;7.589999999999999;;
74788;SDS011;63313;48.258;12.518;2022-11-13T09:50:26;11.61;;;7.709999999999999;;
74788;SDS011;63313;48.258;12.518;2022-11-13T09:55:55;16.45;;;8.370000000000001;;
74788;SDS011;63313;48.258;12.518;2022-11-13T10:01:25;11.3;;;8.03;;
74788;SDS011;63313;48.258;12.518;2022-11-13T10:06:58;13.23;;;8.000000000000002;;
74788;SDS011;63313;48.258;12.518;2022-11-13T10:12:26;16.189999999999998;;;9.120000000000001;;
74788;SDS011;63313;48.258;12.518;2022-11-13T10:17:56;13.709999999999999;;;8.0;;
74788;SDS011;63313;48.258;12.518;2022-11-13T10:23:26;13.95;;;8.35;;
74788;SDS011;63313;48.258;12.518;2022-11-13T10:28:55;15.26;;;9.060000000000002;;
74788;SDS011;63313;48.258;12.518;2022-11-13T10:34:25;26.74;;;9.959999999999999;;
74788;SDS011;63313;48.258;12.518;2022-11-13T10:39:52;27.98;;;11.27;;
74788;SDS011;63313;48.258;12.518;2022-11-13T10:45:20;19.919999999999998;;;9.83;;
74788;SDS011;63313;48.258;12.518;2022-11-13T10:50:56;15.110000000000003;;;9.070000000000002;;
74788;SDS011;63313;48.258;12.518;2022-11-13T10:56:25;20.91;;;9.320000000000002;;
74788;SDS011;63313;48.258;12.518;2022-11-13T11:01:53;22.72;;;11.7;;
74788;SDS011;63313;48.258;12.518;2022-11-13T11:07:20;20.940000000000005;;;9.500000000000002;;
74788;SDS011;63313;48.258;12.518;2022-11-13T11:12:52;23.610000000000003;;;11.129999999999999;;
74788;SDS011;63313;48.258;12.518;2022-11-13T11:18:21;14.070000000000002;;;7.93;;
74788;SDS011;63313;48.258;12.518;2022-11-13T11:23:51;13.15;;;8.62;;
74788;SDS011;63313;48.258;12.518;2022-11-13T11:29:21;10.74;;;6.8100000000000005;;
74788;SDS011;63313;48.258;12.518;2022-11-13T11:34:52;9.629999999999999;;;6.5;;
74788;SDS011;63313;48.258;12.518;2022-11-13T11:40:25;13.27;;;8.58;;
74788;SDS011;63313;48.258;12.518;2022-11-13T11:45:53;9.749999999999998;;;6.510000000000001;;
74788;SDS011;63313;48.258;12.518;2022-11-13T11:51:23;9.430000000000001;;;6.5200000000000005;;
74788;SDS011;63313;48.258;12.518;2022-11-13T11:56:51;9.14;;;5.569999999999999;;
74788;SDS011;63313;48.258;12.518;2022-11-13T12:02:30;10.129999999999999;;;5.619999999999999;;
74788;SDS011;63313;48.258;12.518;2022-11-13T12:08:03;9.65;;;5.609999999999999;;
74788;SDS011;63313;48.258;12.518;2022-11-13T12:13:36;5.339999999999999;;;4.430000000000001;;
74788;SDS011;63313;48.258;12.518;2022-11-13T12:19:09;7.88;;;4.9;;
74788;SDS011;63313;48.258;12.518;2022-11-13T12:24:46;7.019999999999999;;;5.030000000000001;;
74788;SDS011;63313;48.258;12.518;2022-11-13T12:30:16;4.32;;;3.91;;
74788;SDS011;63313;48.258;12.518;2022-11-13T12:35:45;7.1;;;4.42;;
74788;SDS011;63313;48.258;12.518;2022-11-13T12:41:15;5.39;;;3.9099999999999993;;
74788;SDS011;63313;48.258;12.518;2022-11-13T12:46:44;4.71;;;3.6199999999999997;;
74788;SDS011;63313;48.258;12.518;2022-11-13T12:52:16;4.38;;;3.94;;
74788;SDS011;63313;48.258;12.518;2022-11-13T12:57:45;5.76;;;4.359999999999999;;
74788;SDS011;63313;48.258;12.518;2022-11-13T13:03:18;5.29;;;3.6199999999999997;;
74788;SDS011;63313;48.258;12.518;2022-11-13T13:08:48;4.539999999999999;;;3.5799999999999996;;
74788;SDS011;63313;48.258;12.518;2022-11-13T13:14:23;4.55;;;3.6700000000000004;;
74788;SDS011;63313;48.258;12.518;2022-11-13T13:19:58;4.0200000000000005;;;3.1900000000000004;;
74788;SDS011;63313;48.258;12.518;2022-11-13T13:25:27;4.11;;;3.44;;
74788;SDS011;63313;48.258;12.518;2022-11-13T13:30:56;3.84;;;3.25;;
74788;SDS011;63313;48.258;12.518;2022-11-13T13:36:29;4.25;;;3.13;;
74788;SDS011;63313;48.258;12.518;2022-11-13T13:42:04;3.6399999999999997;;;3.04;;
74788;SDS011;63313;48.258;12.518;2022-11-13T13:47:33;4.220000000000001;;;3.18;;
74788;SDS011;63313;48.258;12.518;2022-11-13T13:53:01;3.94;;;3.45;;
74788;SDS011;63313;48.258;12.518;2022-11-13T13:58:29;4.12;;;3.4200000000000004;;
74788;SDS011;63313;48.258;12.518;2022-11-13T14:04:02;5.17;;;3.91;;
74788;SDS011;63313;48.258;12.518;2022-11-13T14:09:30;4.970000000000001;;;3.84;;
74788;SDS011;63313;48.258;12.518;2022-11-13T14:14:57;4.09;;;3.5499999999999994;;
74788;SDS011;63313;48.258;12.518;2022-11-13T14:20:24;5.3100000000000005;;;4.0600000000000005;;
74788;SDS011;63313;48.258;12.518;2022-11-13T14:25:51;7.089999999999999;;;3.9899999999999998;;
74788;SDS011;63313;48.258;12.518;2022-11-13T14:31:18;3.96;;;3.5700000000000003;;
74788;SDS011;63313;48.258;12.518;2022-11-13T14:36:45;5.9;;;3.5199999999999996;;
74788;SDS011;63313;48.258;12.518;2022-11-13T14:42:15;5.25;;;3.75;;
74788;SDS011;63313;48.258;12.518;2022-11-13T14:47:53;7.2299999999999995;;;4.7700000000000005;;
74788;SDS011;63313;48.258;12.518;2022-11-13T14:53:25;4.99;;;3.96;;
74788;SDS011;63313;48.258;12.518;2022-11-13T14:58:53;5.58;;;4.2299999999999995;;
74788;SDS011;63313;48.258;12.518;2022-11-13T15:04:20;11.879999999999999;;;6.05;;
74788;SDS011;63313;48.258;12.518;2022-11-13T15:09:47;12.919999999999998;;;6.790000000000001;;
74788;SDS011;63313;48.258;12.518;2022-11-13T15:15:16;8.92;;;5.869999999999999;;
74788;SDS011;63313;48.258;12.518;2022-11-13T15:20:43;8.37;;;5.64;;
74788;SDS011;63313;48.258;12.518;2022-11-13T15:26:11;5.999999999999999;;;4.9399999999999995;;
74788;SDS011;63313;48.258;12.518;2022-11-13T15:31:39;7.830000000000001;;;5.5200000000000005;;
74788;SDS011;63313;48.258;12.518;2022-11-13T15:37:09;7.37;;;4.99;;
74788;SDS011;63313;48.258;12.518;2022-11-13T15:42:36;6.540000000000001;;;4.88;;
74788;SDS011;63313;48.258;12.518;2022-11-13T15:48:04;7.68;;;5.459999999999999;;
74788;SDS011;63313;48.258;12.518;2022-11-13T15:53:32;11.700000000000001;;;6.960000000000001;;
74788;SDS011;63313;48.258;12.518;2022-11-13T15:58:59;13.430000000000001;;;8.569999999999999;;
74788;SDS011;63313;48.258;12.518;2022-11-13T16:04:26;12.31;;;6.95;;
74788;SDS011;63313;48.258;12.518;2022-11-13T16:09:53;9.459999999999999;;;5.739999999999999;;
74788;SDS011;63313;48.258;12.518;2022-11-13T16:15:20;8.62;;;5.94;;
74788;SDS011;63313;48.258;12.518;2022-11-13T16:20:47;12.07;;;7.510000000000001;;
74788;SDS011;63313;48.258;12.518;2022-11-13T16:26:15;12.780000000000001;;;7.239999999999999;;
74788;SDS011;63313;48.258;12.518;2022-11-13T16:31:43;9.62;;;6.49;;
74788;SDS011;63313;48.258;12.518;2022-11-13T16:37:11;8.9;;;6.16;;
74788;SDS011;63313;48.258;12.518;2022-11-13T16:42:39;12.959999999999999;;;7.109999999999999;;
74788;SDS011;63313;48.258;12.518;2022-11-13T16:48:08;10.150000000000002;;;7.5200000000000005;;
74788;SDS011;63313;48.258;12.518;2022-11-13T16:53:37;12.31;;;7.959999999999999;;
74788;SDS011;63313;48.258;12.518;2022-11-13T16:59:04;19.42;;;10.319999999999999;;
74788;SDS011;63313;48.258;12.518;2022-11-13T17:04:31;15.889999999999997;;;9.919999999999998;;
74788;SDS011;63313;48.258;12.518;2022-11-13T17:09:58;14.930000000000001;;;10.11;;
74788;SDS011;63313;48.258;12.518;2022-11-13T17:15:26;18.06;;;11.57;;
74788;SDS011;63313;48.258;12.518;2022-11-13T17:20:53;15.030000000000001;;;11.629999999999999;;
74788;SDS011;63313;48.258;12.518;2022-11-13T17:26:20;18.03;;;11.84;;
74788;SDS011;63313;48.258;12.518;2022-11-13T17:31:47;19.05;;;11.920000000000002;;
74788;SDS011;63313;48.258;12.518;2022-11-13T17:37:14;20.669999999999998;;;11.07;;
74788;SDS011;63313;48.258;12.518;2022-11-13T17:42:41;14.069999999999999;;;8.74;;
74788;SDS011;63313;48.258;12.518;2022-11-13T17:48:08;10.319999999999999;;;7.0200000000000005;;
74788;SDS011;63313;48.258;12.518;2022-11-13T17:53:35;9.629999999999999;;;7.159999999999999;;
74788;SDS011;63313;48.258;12.518;2022-11-13T17:59:03;14.95;;;8.33;;
74788;SDS011;63313;48.258;12.518;2022-11-13T18:04:30;11.16;;;7.4799999999999995;;
74788;SDS011;63313;48.258;12.518;2022-11-13T18:09:57;12.07;;;7.889999999999999;;
74788;SDS011;63313;48.258;12.518;2022-11-13T18:15:24;12.200000000000001;;;7.960000000000001;;
74788;SDS011;63313;48.258;12.518;2022-11-13T18:20:51;12.530000000000001;;;9.139999999999999;;
74788;SDS011;63313;48.258;12.518;2022-11-13T18:26:18;15.290000000000001;;;8.49;;
74788;SDS011;63313;48.258;12.518;2022-11-13T18:31:45;15.220000000000002;;;8.17;;
74788;SDS011;63313;48.258;12.518;2022-11-13T18:37:12;15.75;;;8.7;;
74788;SDS011;63313;48.258;12.518;2022-11-13T18:42:39;16.59;;;9.219999999999999;;
74788;SDS011;63313;48.258;12.518;2022-11-13T18:48:06;13.940000000000001;;;8.82;;
74788;SDS011;63313;48.258;12.518;2022-11-13T18:53:33;12.760000000000002;;;8.959999999999999;;
74788;SDS011;63313;48.258;12.518;2022-11-13T18:59:01;13.8;;;9.13;;
74788;SDS011;63313;48.258;12.518;2022-11-13T19:04:28;14.789999999999997;;;8.85;;
74788;SDS011;63313;48.258;12.518;2022-11-13T19:09:55;16.53;;;9.22;;
74788;SDS011;63313;48.258;12.518;2022-11-13T19:15:22;14.870000000000001;;;8.71;;
74788;SDS011;63313;48.258;12.518;2022-11-13T19:20:49;13.55;;;9.14;;
74788;SDS011;63313;48.258;12.518;2022-11-13T19:26:16;13.530000000000001;;;9.84;;
74788;SDS011;63313;48.258;12.518;2022-11-13T19:31:44;16.71;;;9.59;;
74788;SDS011;63313;48.258;12.518;2022-11-13T19:37:11;14.040000000000001;;;8.670000000000002;;
74788;SDS011;63313;48.258;12.518;2022-11-13T19:42:38;14.209999999999999;;;9.22;;
74788;SDS011;63313;48.258;12.518;2022-11-13T19:48:05;17.16;;;9.000000000000002;;
74788;SDS011;63313;48.258;12.518;2022-11-13T19:53:32;17.01;;;9.879999999999999;;
74788;SDS011;63313;48.258;12.518;2022-11-13T19:58:59;17.589999999999996;;;9.279999999999998;;
74788;SDS011;63313;48.258;12.518;2022-11-13T20:04:26;22.43;;;10.45;;
74788;SDS011;63313;48.258;12.518;2022-11-13T20:09:53;14.8;;;9.61;;
74788;SDS011;63313;48.258;12.518;2022-11-13T20:15:20;20.450000000000003;;;10.05;;
74788;SDS011;63313;48.258;12.518;2022-11-13T20:20:47;15.979999999999999;;;10.430000000000001;;
74788;SDS011;63313;48.258;12.518;2022-11-13T20:26:15;14.680000000000001;;;9.129999999999999;;
74788;SDS011;63313;48.258;12.518;2022-11-13T20:31:42;20.54;;;12.59;;
74788;SDS011;63313;48.258;12.518;2022-11-13T20:37:09;26.57;;;12.64;;
74788;SDS011;63313;48.258;12.518;2022-11-13T20:42:36;19.77;;;10.92;;
74788;SDS011;63313;48.258;12.518;2022-11-13T20:48:03;26.830000000000002;;;12.3;;
74788;SDS011;63313;48.258;12.518;2022-11-13T20:53:31;37.34;;;15.139999999999997;;
74788;SDS011;63313;48.258;12.518;2022-11-13T20:58:58;23.990000000000002;;;13.49;;
74788;SDS011;63313;48.258;12.518;2022-11-13T21:04:25;35.980000000000004;;;15.14;;
74788;SDS011;63313;48.258;12.518;2022-11-13T21:09:52;20.78;;;11.41;;
74788;SDS011;63313;48.258;12.518;2022-11-13T21:15:19;21.349999999999998;;;10.540000000000001;;
74788;SDS011;63313;48.258;12.518;2022-11-13T21:20:46;35.02;;;14.5;;
74788;SDS011;63313;48.258;12.518;2022-11-13T21:26:14;20.229999999999997;;;11.07;;
74788;SDS011;63313;48.258;12.518;2022-11-13T21:31:41;26.190000000000005;;;11.83;;
74788;SDS011;63313;48.258;12.518;2022-11-13T21:37:08;23.950000000000003;;;12.73;;
74788;SDS011;63313;48.258;12.518;2022-11-13T21:42:35;18.610000000000003;;;10.89;;
74788;SDS011;63313;48.258;12.518;2022-11-13T21:48:02;23.990000000000002;;;11.530000000000001;;
74788;SDS011;63313;48.258;12.518;2022-11-13T21:53:30;35.87;;;13.930000000000001;;
74788;SDS011;63313;48.258;12.518;2022-11-13T21:58:57;17.92;;;9.190000000000001;;
74788;SDS011;63313;48.258;12.518;2022-11-13T22:04:24;27.65;;;12.77;;
74788;SDS011;63313;48.258;12.518;2022-11-13T22:09:51;20.33;;;10.180000000000001;;
74788;SDS011;63313;48.258;12.518;2022-11-13T22:15:18;19.839999999999996;;;9.86;;
74788;SDS011;63313;48.258;12.518;2022-11-13T22:20:45;18.580000000000002;;;9.739999999999998;;
74788;SDS011;63313;48.258;12.518;2022-11-13T22:26:13;19.470000000000002;;;9.66;;
74788;SDS011;63313;48.258;12.518;2022-11-13T22:31:40;15.169999999999998;;;8.190000000000001;;
74788;SDS011;63313;48.258;12.518;2022-11-13T22:37:07;13.45;;;8.010000000000002;;
74788;SDS011;63313;48.258;12.518;2022-11-13T22:42:34;17.89;;;8.05;;
74788;SDS011;63313;48.258;12.518;2022-11-13T22:48:01;27.059999999999995;;;11.459999999999999;;
74788;SDS011;63313;48.258;12.518;2022-11-13T22:53:28;32.42;;;10.53;;
74788;SDS011;63313;48.258;12.518;2022-11-13T22:58:56;13.540000000000001;;;7.17;;
74788;SDS011;63313;48.258;12.518;2022-11-13T23:04:23;14.73;;;6.74;;
74788;SDS011;63313;48.258;12.518;2022-11-13T23:09:50;11.71;;;6.58;;
74788;SDS011;63313;48.258;12.518;2022-11-13T23:15:17;9.469999999999999;;;6.15;;
74788;SDS011;63313;48.258;12.518;2022-11-13T23:20:45;9.47;;;6.220000000000001;;
74788;SDS011;63313;48.258;12.518;2022-11-13T23:26:13;12.620000000000001;;;6.65;;
74788;SDS011;63313;48.258;12.518;2022-11-13T23:31:41;8.989999999999998;;;5.75;;
74788;SDS011;63313;48.258;12.518;2022-11-13T23:37:08;13.89;;;8.56;;
74788;SDS011;63313;48.258;12.518;2022-11-13T23:42:35;39.57;;;22.21;;
74788;SDS011;63313;48.258;12.518;2022-11-13T23:48:02;42.989999999999995;;;24.81;;
74788;SDS011;63313;48.258;12.518;2022-11-13T23:53:29;34.8;;;20.85;;
74788;SDS011;63313;48.258;12.518;2022-11-13T23:58:56;38.779999999999994;;;22.490000000000002;;
